sensor_id;sensor_type;location;lat;lon;timestamp;temperature;humidity
78708;SHT31;68037;51.978;5.650;2023-02-24T00:00:53;7.8;62.0
78708;SHT31;68037;51.978;5.650;2023-02-24T00:03:23;7.8;61.9
78708;SHT31;68037;51.978;5.650;2023-02-24T00:05:53;7.7;62.3
78708;SHT31;68037;51.978;5.650;2023-02-24T00:08:24;7.7;62.2
78708;SHT31;68037;51.978;5.650;2023-02-24T00:10:54;7.6;62.1
78708;SHT31;68037;51.978;5.650;2023-02-24T00:13:24;7.6;62.4
78708;SHT31;68037;51.978;5.650;2023-02-24T00:16:01;7.6;62.6
78708;SHT31;68037;51.978;5.650;2023-02-24T00:18:33;7.6;62.3
78708;SHT31;68037;51.978;5.650;2023-02-24T00:21:10;7.6;62.1
78708;SHT31;68037;51.978;5.650;2023-02-24T00:23:43;7.6;61.7
78708;SHT31;68037;51.978;5.650;2023-02-24T00:26:15;7.6;62.1
78708;SHT31;68037;51.978;5.650;2023-02-24T00:28:45;7.5;62.3
78708;SHT31;68037;51.978;5.650;2023-02-24T00:31:17;7.5;62.2
78708;SHT31;68037;51.978;5.650;2023-02-24T00:33:50;7.5;61.6
78708;SHT31;68037;51.978;5.650;2023-02-24T00:36:23;7.4;61.8
78708;SHT31;68037;51.978;5.650;2023-02-24T00:38:56;7.4;62.2
78708;SHT31;68037;51.978;5.650;2023-02-24T00:41:31;7.4;62.2
78708;SHT31;68037;51.978;5.650;2023-02-24T00:44:05;7.3;61.9
78708;SHT31;68037;51.978;5.650;2023-02-24T00:46:37;7.3;62.1
78708;SHT31;68037;51.978;5.650;2023-02-24T00:49:11;7.3;62.5
78708;SHT31;68037;51.978;5.650;2023-02-24T00:51:45;7.3;61.9
78708;SHT31;68037;51.978;5.650;2023-02-24T00:54:15;7.2;61.7
78708;SHT31;68037;51.978;5.650;2023-02-24T00:56:47;7.2;62.0
78708;SHT31;68037;51.978;5.650;2023-02-24T00:59:17;7.2;62.1
78708;SHT31;68037;51.978;5.650;2023-02-24T01:01:49;7.1;62.2
78708;SHT31;68037;51.978;5.650;2023-02-24T01:04:21;7.1;62.0
78708;SHT31;68037;51.978;5.650;2023-02-24T01:06:52;7.1;62.1
78708;SHT31;68037;51.978;5.650;2023-02-24T01:09:28;7.1;62.2
78708;SHT31;68037;51.978;5.650;2023-02-24T01:12:01;7.0;62.8
78708;SHT31;68037;51.978;5.650;2023-02-24T01:14:52;7.0;62.5
78708;SHT31;68037;51.978;5.650;2023-02-24T01:17:22;6.9;62.3
78708;SHT31;68037;51.978;5.650;2023-02-24T01:19:53;6.9;62.5
78708;SHT31;68037;51.978;5.650;2023-02-24T01:22:26;6.9;62.5
78708;SHT31;68037;51.978;5.650;2023-02-24T01:24:56;6.8;62.5
78708;SHT31;68037;51.978;5.650;2023-02-24T01:27:25;6.8;62.7
78708;SHT31;68037;51.978;5.650;2023-02-24T01:29:54;6.7;62.5
78708;SHT31;68037;51.978;5.650;2023-02-24T01:32:27;6.7;62.3
78708;SHT31;68037;51.978;5.650;2023-02-24T01:34:58;6.7;62.6
78708;SHT31;68037;51.978;5.650;2023-02-24T01:37:28;6.6;62.9
78708;SHT31;68037;51.978;5.650;2023-02-24T01:39:58;6.6;62.9
78708;SHT31;68037;51.978;5.650;2023-02-24T01:42:32;6.6;62.6
78708;SHT31;68037;51.978;5.650;2023-02-24T01:45:14;6.5;62.4
78708;SHT31;68037;51.978;5.650;2023-02-24T01:47:45;6.5;62.8
78708;SHT31;68037;51.978;5.650;2023-02-24T01:50:20;6.5;62.8
78708;SHT31;68037;51.978;5.650;2023-02-24T01:52:55;6.5;62.7
78708;SHT31;68037;51.978;5.650;2023-02-24T01:55:29;6.4;62.7
78708;SHT31;68037;51.978;5.650;2023-02-24T01:58:04;6.4;63.4
78708;SHT31;68037;51.978;5.650;2023-02-24T02:00:35;6.4;62.9
78708;SHT31;68037;51.978;5.650;2023-02-24T02:03:19;6.4;63.0
78708;SHT31;68037;51.978;5.650;2023-02-24T02:05:54;6.4;62.7
78708;SHT31;68037;51.978;5.650;2023-02-24T02:08:26;6.4;62.7
78708;SHT31;68037;51.978;5.650;2023-02-24T02:11:02;6.4;62.5
78708;SHT31;68037;51.978;5.650;2023-02-24T02:13:33;6.3;62.5
78708;SHT31;68037;51.978;5.650;2023-02-24T02:16:19;6.3;62.5
78708;SHT31;68037;51.978;5.650;2023-02-24T02:19:02;6.3;62.6
78708;SHT31;68037;51.978;5.650;2023-02-24T02:22:36;6.3;62.5
78708;SHT31;68037;51.978;5.650;2023-02-24T02:25:17;6.3;62.9
78708;SHT31;68037;51.978;5.650;2023-02-24T02:28:24;6.2;62.6
78708;SHT31;68037;51.978;5.650;2023-02-24T02:31:21;6.2;62.7
78708;SHT31;68037;51.978;5.650;2023-02-24T02:34:32;6.2;62.9
78708;SHT31;68037;51.978;5.650;2023-02-24T02:37:09;6.2;62.7
78708;SHT31;68037;51.978;5.650;2023-02-24T02:39:49;6.1;62.7
78708;SHT31;68037;51.978;5.650;2023-02-24T02:42:28;6.1;62.8
78708;SHT31;68037;51.978;5.650;2023-02-24T02:45:05;6.1;62.8
78708;SHT31;68037;51.978;5.650;2023-02-24T02:47:40;6.1;63.0
78708;SHT31;68037;51.978;5.650;2023-02-24T02:50:17;6.1;62.7
78708;SHT31;68037;51.978;5.650;2023-02-24T02:52:54;6.1;63.4
78708;SHT31;68037;51.978;5.650;2023-02-24T02:55:32;6.1;63.2
78708;SHT31;68037;51.978;5.650;2023-02-24T02:58:09;6.1;62.5
78708;SHT31;68037;51.978;5.650;2023-02-24T03:00:44;6.1;62.5
78708;SHT31;68037;51.978;5.650;2023-02-24T03:03:22;6.1;62.9
78708;SHT31;68037;51.978;5.650;2023-02-24T03:05:56;6.1;62.9
78708;SHT31;68037;51.978;5.650;2023-02-24T03:08:32;6.0;62.8
78708;SHT31;68037;51.978;5.650;2023-02-24T03:11:08;6.0;63.3
78708;SHT31;68037;51.978;5.650;2023-02-24T03:13:42;6.0;63.2
78708;SHT31;68037;51.978;5.650;2023-02-24T03:16:17;6.0;63.9
78708;SHT31;68037;51.978;5.650;2023-02-24T03:18:53;6.0;63.2
78708;SHT31;68037;51.978;5.650;2023-02-24T03:21:32;6.0;63.5
78708;SHT31;68037;51.978;5.650;2023-02-24T03:24:05;5.9;63.7
78708;SHT31;68037;51.978;5.650;2023-02-24T03:26:41;5.9;63.7
78708;SHT31;68037;51.978;5.650;2023-02-24T03:29:16;5.9;63.3
78708;SHT31;68037;51.978;5.650;2023-02-24T03:31:52;5.9;63.3
78708;SHT31;68037;51.978;5.650;2023-02-24T03:34:32;5.9;63.1
78708;SHT31;68037;51.978;5.650;2023-02-24T03:37:04;5.9;63.1
78708;SHT31;68037;51.978;5.650;2023-02-24T03:39:34;5.9;62.8
78708;SHT31;68037;51.978;5.650;2023-02-24T03:42:10;5.9;63.8
78708;SHT31;68037;51.978;5.650;2023-02-24T03:44:41;5.9;63.5
78708;SHT31;68037;51.978;5.650;2023-02-24T03:47:12;5.9;63.4
78708;SHT31;68037;51.978;5.650;2023-02-24T03:49:42;5.9;63.4
78708;SHT31;68037;51.978;5.650;2023-02-24T03:52:21;5.9;63.4
78708;SHT31;68037;51.978;5.650;2023-02-24T03:55:10;5.9;63.9
78708;SHT31;68037;51.978;5.650;2023-02-24T03:57:55;5.9;63.5
78708;SHT31;68037;51.978;5.650;2023-02-24T04:00:37;5.9;63.3
78708;SHT31;68037;51.978;5.650;2023-02-24T04:03:24;5.9;63.6
78708;SHT31;68037;51.978;5.650;2023-02-24T04:06:07;5.9;63.2
78708;SHT31;68037;51.978;5.650;2023-02-24T04:08:49;5.9;63.3
78708;SHT31;68037;51.978;5.650;2023-02-24T04:11:25;5.9;63.4
78708;SHT31;68037;51.978;5.650;2023-02-24T04:14:01;5.9;63.4
78708;SHT31;68037;51.978;5.650;2023-02-24T04:16:37;5.9;63.3
78708;SHT31;68037;51.978;5.650;2023-02-24T04:19:12;5.9;63.3
78708;SHT31;68037;51.978;5.650;2023-02-24T04:21:46;5.9;63.1
78708;SHT31;68037;51.978;5.650;2023-02-24T04:24:21;5.9;63.0
78708;SHT31;68037;51.978;5.650;2023-02-24T04:26:52;5.9;63.9
78708;SHT31;68037;51.978;5.650;2023-02-24T04:29:30;5.9;63.4
78708;SHT31;68037;51.978;5.650;2023-02-24T04:32:06;5.9;63.7
78708;SHT31;68037;51.978;5.650;2023-02-24T04:34:37;5.9;63.3
78708;SHT31;68037;51.978;5.650;2023-02-24T04:37:08;5.9;63.4
78708;SHT31;68037;51.978;5.650;2023-02-24T04:39:39;5.9;63.3
78708;SHT31;68037;51.978;5.650;2023-02-24T04:42:09;5.9;63.9
78708;SHT31;68037;51.978;5.650;2023-02-24T04:44:38;6.0;63.5
78708;SHT31;68037;51.978;5.650;2023-02-24T04:47:10;6.0;63.9
78708;SHT31;68037;51.978;5.650;2023-02-24T04:49:43;6.1;63.7
78708;SHT31;68037;51.978;5.650;2023-02-24T04:52:12;6.1;63.2
78708;SHT31;68037;51.978;5.650;2023-02-24T04:54:42;6.2;62.9
78708;SHT31;68037;51.978;5.650;2023-02-24T04:57:14;6.3;62.2
78708;SHT31;68037;51.978;5.650;2023-02-24T04:59:44;6.3;62.3
78708;SHT31;68037;51.978;5.650;2023-02-24T05:02:13;6.3;62.0
78708;SHT31;68037;51.978;5.650;2023-02-24T05:04:44;6.3;62.1
78708;SHT31;68037;51.978;5.650;2023-02-24T05:07:15;6.2;62.8
78708;SHT31;68037;51.978;5.650;2023-02-24T05:09:46;6.2;62.6
78708;SHT31;68037;51.978;5.650;2023-02-24T05:12:16;6.2;62.4
78708;SHT31;68037;51.978;5.650;2023-02-24T05:14:45;6.1;62.8
78708;SHT31;68037;51.978;5.650;2023-02-24T05:17:15;6.1;63.3
78708;SHT31;68037;51.978;5.650;2023-02-24T05:19:46;6.1;63.6
78708;SHT31;68037;51.978;5.650;2023-02-24T05:22:32;6.1;63.1
78708;SHT31;68037;51.978;5.650;2023-02-24T05:25:03;6.2;63.2
78708;SHT31;68037;51.978;5.650;2023-02-24T05:27:33;6.1;63.4
78708;SHT31;68037;51.978;5.650;2023-02-24T05:30:06;6.1;63.3
78708;SHT31;68037;51.978;5.650;2023-02-24T05:32:36;6.1;63.3
78708;SHT31;68037;51.978;5.650;2023-02-24T05:35:09;6.1;63.7
78708;SHT31;68037;51.978;5.650;2023-02-24T05:37:39;6.1;64.0
78708;SHT31;68037;51.978;5.650;2023-02-24T05:40:12;6.1;63.8
78708;SHT31;68037;51.978;5.650;2023-02-24T05:42:43;6.1;63.7
78708;SHT31;68037;51.978;5.650;2023-02-24T05:45:15;6.0;63.8
78708;SHT31;68037;51.978;5.650;2023-02-24T05:47:46;6.0;63.8
78708;SHT31;68037;51.978;5.650;2023-02-24T05:50:16;6.0;63.4
78708;SHT31;68037;51.978;5.650;2023-02-24T05:52:51;6.0;64.1
78708;SHT31;68037;51.978;5.650;2023-02-24T05:55:22;6.0;64.1
78708;SHT31;68037;51.978;5.650;2023-02-24T05:57:51;6.0;63.7
78708;SHT31;68037;51.978;5.650;2023-02-24T06:00:23;6.0;64.0
78708;SHT31;68037;51.978;5.650;2023-02-24T06:02:53;6.0;64.4
78708;SHT31;68037;51.978;5.650;2023-02-24T06:05:29;6.0;64.8
78708;SHT31;68037;51.978;5.650;2023-02-24T06:08:00;6.1;64.5
78708;SHT31;68037;51.978;5.650;2023-02-24T06:10:33;6.1;64.0
78708;SHT31;68037;51.978;5.650;2023-02-24T06:13:03;6.1;64.5
78708;SHT31;68037;51.978;5.650;2023-02-24T06:15:33;6.2;63.8
78708;SHT31;68037;51.978;5.650;2023-02-24T06:18:05;6.2;63.2
78708;SHT31;68037;51.978;5.650;2023-02-24T06:20:37;6.2;63.2
78708;SHT31;68037;51.978;5.650;2023-02-24T06:23:10;6.2;63.2
78708;SHT31;68037;51.978;5.650;2023-02-24T06:25:43;6.2;63.8
78708;SHT31;68037;51.978;5.650;2023-02-24T06:28:12;6.2;63.3
78708;SHT31;68037;51.978;5.650;2023-02-24T06:30:42;6.2;64.1
78708;SHT31;68037;51.978;5.650;2023-02-24T06:33:11;6.2;63.9
78708;SHT31;68037;51.978;5.650;2023-02-24T06:35:41;6.2;64.2
78708;SHT31;68037;51.978;5.650;2023-02-24T06:38:12;6.3;64.0
78708;SHT31;68037;51.978;5.650;2023-02-24T06:40:43;6.3;63.8
78708;SHT31;68037;51.978;5.650;2023-02-24T06:43:13;6.4;63.5
78708;SHT31;68037;51.978;5.650;2023-02-24T06:45:43;6.4;63.5
78708;SHT31;68037;51.978;5.650;2023-02-24T06:48:15;6.4;64.1
78708;SHT31;68037;51.978;5.650;2023-02-24T06:50:45;6.5;64.1
78708;SHT31;68037;51.978;5.650;2023-02-24T06:53:17;6.5;63.5
78708;SHT31;68037;51.978;5.650;2023-02-24T06:55:48;6.5;63.5
78708;SHT31;68037;51.978;5.650;2023-02-24T06:58:19;6.5;63.8
78708;SHT31;68037;51.978;5.650;2023-02-24T07:00:50;6.5;64.2
78708;SHT31;68037;51.978;5.650;2023-02-24T07:03:27;6.5;64.1
78708;SHT31;68037;51.978;5.650;2023-02-24T07:06:05;6.4;63.7
78708;SHT31;68037;51.978;5.650;2023-02-24T07:08:51;6.4;64.2
78708;SHT31;68037;51.978;5.650;2023-02-24T07:11:22;6.4;64.3
78708;SHT31;68037;51.978;5.650;2023-02-24T07:13:51;6.3;64.5
78708;SHT31;68037;51.978;5.650;2023-02-24T07:16:25;6.3;64.3
78708;SHT31;68037;51.978;5.650;2023-02-24T07:18:58;6.3;64.9
78708;SHT31;68037;51.978;5.650;2023-02-24T07:21:30;6.3;64.8
78708;SHT31;68037;51.978;5.650;2023-02-24T07:24:06;6.3;64.6
78708;SHT31;68037;51.978;5.650;2023-02-24T07:26:36;6.2;65.0
78708;SHT31;68037;51.978;5.650;2023-02-24T07:29:10;6.2;64.8
78708;SHT31;68037;51.978;5.650;2023-02-24T07:31:40;6.2;65.2
78708;SHT31;68037;51.978;5.650;2023-02-24T07:34:09;6.2;65.0
78708;SHT31;68037;51.978;5.650;2023-02-24T07:36:41;6.2;65.4
78708;SHT31;68037;51.978;5.650;2023-02-24T07:39:18;6.2;65.6
78708;SHT31;68037;51.978;5.650;2023-02-24T07:41:52;6.2;65.1
78708;SHT31;68037;51.978;5.650;2023-02-24T07:44:23;6.2;65.6
78708;SHT31;68037;51.978;5.650;2023-02-24T07:46:58;6.3;66.2
78708;SHT31;68037;51.978;5.650;2023-02-24T07:49:33;6.4;65.9
78708;SHT31;68037;51.978;5.650;2023-02-24T07:52:03;6.4;65.9
78708;SHT31;68037;51.978;5.650;2023-02-24T07:54:36;6.4;66.3
78708;SHT31;68037;51.978;5.650;2023-02-24T07:57:06;6.4;66.6
78708;SHT31;68037;51.978;5.650;2023-02-24T07:59:42;6.4;66.3
78708;SHT31;68037;51.978;5.650;2023-02-24T08:02:14;6.4;67.0
78708;SHT31;68037;51.978;5.650;2023-02-24T08:04:45;6.4;67.6
78708;SHT31;68037;51.978;5.650;2023-02-24T08:07:19;6.4;68.0
78708;SHT31;68037;51.978;5.650;2023-02-24T08:09:52;6.4;67.7
78708;SHT31;68037;51.978;5.650;2023-02-24T08:12:40;6.4;68.2
78708;SHT31;68037;51.978;5.650;2023-02-24T08:15:11;6.3;68.3
78708;SHT31;68037;51.978;5.650;2023-02-24T08:17:50;6.3;68.4
78708;SHT31;68037;51.978;5.650;2023-02-24T08:20:25;6.3;69.4
78708;SHT31;68037;51.978;5.650;2023-02-24T08:22:56;6.3;69.0
78708;SHT31;68037;51.978;5.650;2023-02-24T08:25:28;6.3;69.0
78708;SHT31;68037;51.978;5.650;2023-02-24T08:28:06;6.2;69.2
78708;SHT31;68037;51.978;5.650;2023-02-24T08:30:40;6.2;69.9
78708;SHT31;68037;51.978;5.650;2023-02-24T08:33:13;6.2;70.4
78708;SHT31;68037;51.978;5.650;2023-02-24T08:35:50;6.2;70.6
78708;SHT31;68037;51.978;5.650;2023-02-24T08:38:28;6.2;70.6
78708;SHT31;68037;51.978;5.650;2023-02-24T08:41:03;6.2;70.5
78708;SHT31;68037;51.978;5.650;2023-02-24T08:43:38;6.2;71.5
78708;SHT31;68037;51.978;5.650;2023-02-24T08:46:16;6.2;70.4
78708;SHT31;68037;51.978;5.650;2023-02-24T08:48:49;6.2;71.8
78708;SHT31;68037;51.978;5.650;2023-02-24T08:51:24;6.2;71.8
78708;SHT31;68037;51.978;5.650;2023-02-24T08:53:57;6.2;72.3
78708;SHT31;68037;51.978;5.650;2023-02-24T08:56:29;6.3;71.9
78708;SHT31;68037;51.978;5.650;2023-02-24T08:59:05;6.3;71.0
78708;SHT31;68037;51.978;5.650;2023-02-24T09:01:40;6.3;71.8
78708;SHT31;68037;51.978;5.650;2023-02-24T09:04:14;6.3;71.6
78708;SHT31;68037;51.978;5.650;2023-02-24T09:06:48;6.3;72.0
78708;SHT31;68037;51.978;5.650;2023-02-24T09:09:23;6.3;71.7
78708;SHT31;68037;51.978;5.650;2023-02-24T09:11:55;6.4;72.2
78708;SHT31;68037;51.978;5.650;2023-02-24T09:14:27;6.4;72.5
78708;SHT31;68037;51.978;5.650;2023-02-24T09:17:06;6.5;72.3
78708;SHT31;68037;51.978;5.650;2023-02-24T09:19:40;6.6;71.3
78708;SHT31;68037;51.978;5.650;2023-02-24T09:22:48;6.6;71.7
78708;SHT31;68037;51.978;5.650;2023-02-24T09:25:27;6.6;71.7
78708;SHT31;68037;51.978;5.650;2023-02-24T09:28:13;6.6;72.1
78708;SHT31;68037;51.978;5.650;2023-02-24T09:30:47;6.6;72.1
78708;SHT31;68037;51.978;5.650;2023-02-24T09:33:22;6.6;71.1
78708;SHT31;68037;51.978;5.650;2023-02-24T09:35:56;6.6;71.0
78708;SHT31;68037;51.978;5.650;2023-02-24T09:38:35;6.6;70.8
78708;SHT31;68037;51.978;5.650;2023-02-24T09:41:26;6.6;71.4
78708;SHT31;68037;51.978;5.650;2023-02-24T09:44:13;6.6;71.9
78708;SHT31;68037;51.978;5.650;2023-02-24T09:46:50;6.6;71.9
78708;SHT31;68037;51.978;5.650;2023-02-24T09:49:34;6.7;71.9
78708;SHT31;68037;51.978;5.650;2023-02-24T09:52:08;6.7;72.2
78708;SHT31;68037;51.978;5.650;2023-02-24T09:54:44;6.7;72.5
78708;SHT31;68037;51.978;5.650;2023-02-24T09:57:50;6.8;72.7
78708;SHT31;68037;51.978;5.650;2023-02-24T10:01:22;7.0;72.4
78708;SHT31;68037;51.978;5.650;2023-02-24T10:04:02;7.1;71.2
78708;SHT31;68037;51.978;5.650;2023-02-24T10:06:40;7.2;71.3
78708;SHT31;68037;51.978;5.650;2023-02-24T10:09:19;7.3;70.4
78708;SHT31;68037;51.978;5.650;2023-02-24T10:11:57;7.3;70.6
78708;SHT31;68037;51.978;5.650;2023-02-24T10:14:35;7.3;70.6
78708;SHT31;68037;51.978;5.650;2023-02-24T10:17:13;7.3;70.6
78708;SHT31;68037;51.978;5.650;2023-02-24T10:19:59;7.3;71.0
78708;SHT31;68037;51.978;5.650;2023-02-24T10:22:45;7.3;71.0
78708;SHT31;68037;51.978;5.650;2023-02-24T10:25:33;7.3;70.8
78708;SHT31;68037;51.978;5.650;2023-02-24T10:28:17;7.3;71.1
78708;SHT31;68037;51.978;5.650;2023-02-24T10:30:57;7.3;71.7
78708;SHT31;68037;51.978;5.650;2023-02-24T10:33:36;7.2;72.5
78708;SHT31;68037;51.978;5.650;2023-02-24T10:36:16;7.2;73.0
78708;SHT31;68037;51.978;5.650;2023-02-24T10:38:49;7.2;73.6
78708;SHT31;68037;51.978;5.650;2023-02-24T10:41:22;7.2;74.1
78708;SHT31;68037;51.978;5.650;2023-02-24T10:43:56;7.2;74.3
78708;SHT31;68037;51.978;5.650;2023-02-24T10:46:29;7.2;74.7
78708;SHT31;68037;51.978;5.650;2023-02-24T10:49:02;7.2;75.3
78708;SHT31;68037;51.978;5.650;2023-02-24T10:51:39;7.2;75.3
78708;SHT31;68037;51.978;5.650;2023-02-24T10:54:19;7.1;75.8
78708;SHT31;68037;51.978;5.650;2023-02-24T10:57:06;7.1;76.0
78708;SHT31;68037;51.978;5.650;2023-02-24T10:59:45;7.1;76.0
78708;SHT31;68037;51.978;5.650;2023-02-24T11:02:36;7.1;76.4
78708;SHT31;68037;51.978;5.650;2023-02-24T11:05:25;7.0;77.1
78708;SHT31;68037;51.978;5.650;2023-02-24T11:08:16;7.0;77.0
78708;SHT31;68037;51.978;5.650;2023-02-24T11:10:59;7.0;77.4
78708;SHT31;68037;51.978;5.650;2023-02-24T11:13:35;7.0;77.7
78708;SHT31;68037;51.978;5.650;2023-02-24T11:16:22;7.0;77.9
78708;SHT31;68037;51.978;5.650;2023-02-24T11:19:10;7.0;77.6
78708;SHT31;68037;51.978;5.650;2023-02-24T11:21:39;7.0;77.6
78708;SHT31;68037;51.978;5.650;2023-02-24T11:24:16;7.0;78.4
78708;SHT31;68037;51.978;5.650;2023-02-24T11:26:47;7.0;78.4
78708;SHT31;68037;51.978;5.650;2023-02-24T11:29:43;7.0;78.2
78708;SHT31;68037;51.978;5.650;2023-02-24T11:32:45;7.0;78.5
78708;SHT31;68037;51.978;5.650;2023-02-24T11:35:24;7.1;78.9
78708;SHT31;68037;51.978;5.650;2023-02-24T11:38:02;7.1;78.8
78708;SHT31;68037;51.978;5.650;2023-02-24T11:40:41;7.1;79.1
78708;SHT31;68037;51.978;5.650;2023-02-24T11:43:16;7.1;78.8
78708;SHT31;68037;51.978;5.650;2023-02-24T11:45:51;7.1;79.0
78708;SHT31;68037;51.978;5.650;2023-02-24T11:48:26;7.2;78.9
78708;SHT31;68037;51.978;5.650;2023-02-24T11:51:02;7.2;79.4
78708;SHT31;68037;51.978;5.650;2023-02-24T11:53:36;7.2;79.3
78708;SHT31;68037;51.978;5.650;2023-02-24T11:56:13;7.2;79.8
78708;SHT31;68037;51.978;5.650;2023-02-24T11:58:51;7.2;80.0
78708;SHT31;68037;51.978;5.650;2023-02-24T12:01:28;7.2;80.1
78708;SHT31;68037;51.978;5.650;2023-02-24T12:04:11;7.2;80.1
78708;SHT31;68037;51.978;5.650;2023-02-24T12:06:49;7.3;80.0
78708;SHT31;68037;51.978;5.650;2023-02-24T12:09:27;7.3;80.1
78708;SHT31;68037;51.978;5.650;2023-02-24T12:12:02;7.3;80.3
78708;SHT31;68037;51.978;5.650;2023-02-24T12:14:39;7.3;80.4
78708;SHT31;68037;51.978;5.650;2023-02-24T12:17:18;7.4;80.4
78708;SHT31;68037;51.978;5.650;2023-02-24T12:19:58;7.4;80.4
78708;SHT31;68037;51.978;5.650;2023-02-24T12:22:36;7.5;80.7
78708;SHT31;68037;51.978;5.650;2023-02-24T12:25:13;7.5;80.6
78708;SHT31;68037;51.978;5.650;2023-02-24T12:27:57;7.5;80.5
78708;SHT31;68037;51.978;5.650;2023-02-24T12:31:01;7.6;80.4
78708;SHT31;68037;51.978;5.650;2023-02-24T12:33:54;7.6;80.4
78708;SHT31;68037;51.978;5.650;2023-02-24T12:36:54;7.6;80.3
78708;SHT31;68037;51.978;5.650;2023-02-24T12:39:37;7.7;80.6
78708;SHT31;68037;51.978;5.650;2023-02-24T12:42:18;7.7;80.7
78708;SHT31;68037;51.978;5.650;2023-02-24T12:45:00;7.7;80.7
78708;SHT31;68037;51.978;5.650;2023-02-24T12:47:42;7.8;81.2
78708;SHT31;68037;51.978;5.650;2023-02-24T12:50:29;7.8;82.0
78708;SHT31;68037;51.978;5.650;2023-02-24T12:53:09;8.0;82.6
78708;SHT31;68037;51.978;5.650;2023-02-24T12:55:50;8.1;82.2
78708;SHT31;68037;51.978;5.650;2023-02-24T12:58:25;8.2;81.7
78708;SHT31;68037;51.978;5.650;2023-02-24T13:01:08;8.3;81.3
78708;SHT31;68037;51.978;5.650;2023-02-24T13:04:02;8.4;80.5
78708;SHT31;68037;51.978;5.650;2023-02-24T13:06:49;8.5;80.4
78708;SHT31;68037;51.978;5.650;2023-02-24T13:09:27;8.5;80.1
78708;SHT31;68037;51.978;5.650;2023-02-24T13:12:05;8.6;80.0
78708;SHT31;68037;51.978;5.650;2023-02-24T13:14:42;8.7;79.5
78708;SHT31;68037;51.978;5.650;2023-02-24T13:17:21;8.8;80.5
78708;SHT31;68037;51.978;5.650;2023-02-24T13:19:54;9.0;80.1
78708;SHT31;68037;51.978;5.650;2023-02-24T13:22:29;9.2;79.8
78708;SHT31;68037;51.978;5.650;2023-02-24T13:25:18;9.3;79.0
78708;SHT31;68037;51.978;5.650;2023-02-24T13:28:01;9.5;78.6
78708;SHT31;68037;51.978;5.650;2023-02-24T13:30:40;9.6;78.5
78708;SHT31;68037;51.978;5.650;2023-02-24T13:33:29;9.7;78.0
78708;SHT31;68037;51.978;5.650;2023-02-24T13:36:08;9.8;77.4
78708;SHT31;68037;51.978;5.650;2023-02-24T13:38:40;9.9;76.4
78708;SHT31;68037;51.978;5.650;2023-02-24T13:41:32;10.0;76.7
78708;SHT31;68037;51.978;5.650;2023-02-24T13:43:58;10.2;74.9
78708;SHT31;68037;51.978;5.650;2023-02-24T13:46:32;10.2;74.2
78708;SHT31;68037;51.978;5.650;2023-02-24T13:49:21;10.3;74.5
78708;SHT31;68037;51.978;5.650;2023-02-24T13:51:57;10.3;73.0
78708;SHT31;68037;51.978;5.650;2023-02-24T13:57:50;10.3;72.0
78708;SHT31;68037;51.978;5.650;2023-02-24T14:00:29;10.3;71.1
78708;SHT31;68037;51.978;5.650;2023-02-24T14:03:11;10.3;70.5
78708;SHT31;68037;51.978;5.650;2023-02-24T14:05:47;10.3;70.6
78708;SHT31;68037;51.978;5.650;2023-02-24T14:08:21;10.3;70.2
78708;SHT31;68037;51.978;5.650;2023-02-24T14:10:55;10.3;68.9
78708;SHT31;68037;51.978;5.650;2023-02-24T14:13:28;10.2;68.5
78708;SHT31;68037;51.978;5.650;2023-02-24T14:16:05;10.1;68.4
78708;SHT31;68037;51.978;5.650;2023-02-24T14:18:37;10.0;68.7
78708;SHT31;68037;51.978;5.650;2023-02-24T14:21:19;9.8;68.7
78708;SHT31;68037;51.978;5.650;2023-02-24T14:23:58;9.7;69.3
78708;SHT31;68037;51.978;5.650;2023-02-24T14:26:36;9.5;70.4
78708;SHT31;68037;51.978;5.650;2023-02-24T14:29:07;9.4;71.0
78708;SHT31;68037;51.978;5.650;2023-02-24T14:31:38;9.3;72.0
78708;SHT31;68037;51.978;5.650;2023-02-24T14:34:16;9.3;71.9
78708;SHT31;68037;51.978;5.650;2023-02-24T14:36:49;9.2;72.6
78708;SHT31;68037;51.978;5.650;2023-02-24T14:39:22;9.2;71.9
78708;SHT31;68037;51.978;5.650;2023-02-24T14:42:09;9.2;72.9
78708;SHT31;68037;51.978;5.650;2023-02-24T14:44:43;9.1;73.4
78708;SHT31;68037;51.978;5.650;2023-02-24T14:47:15;9.1;72.8
78708;SHT31;68037;51.978;5.650;2023-02-24T14:49:54;9.1;73.3
78708;SHT31;68037;51.978;5.650;2023-02-24T14:52:31;9.2;73.4
78708;SHT31;68037;51.978;5.650;2023-02-24T14:55:05;9.2;73.9
78708;SHT31;68037;51.978;5.650;2023-02-24T14:57:40;9.2;74.5
78708;SHT31;68037;51.978;5.650;2023-02-24T15:00:18;9.3;74.6
78708;SHT31;68037;51.978;5.650;2023-02-24T15:02:55;9.3;74.5
78708;SHT31;68037;51.978;5.650;2023-02-24T15:05:26;9.4;74.1
78708;SHT31;68037;51.978;5.650;2023-02-24T15:07:57;9.4;73.1
78708;SHT31;68037;51.978;5.650;2023-02-24T15:10:30;9.4;72.9
78708;SHT31;68037;51.978;5.650;2023-02-24T15:13:09;9.4;72.9
78708;SHT31;68037;51.978;5.650;2023-02-24T15:15:40;9.5;72.5
78708;SHT31;68037;51.978;5.650;2023-02-24T15:18:19;9.5;71.8
78708;SHT31;68037;51.978;5.650;2023-02-24T15:21:00;9.5;71.9
78708;SHT31;68037;51.978;5.650;2023-02-24T15:23:33;9.5;71.7
78708;SHT31;68037;51.978;5.650;2023-02-24T15:26:04;9.5;70.6
78708;SHT31;68037;51.978;5.650;2023-02-24T15:28:36;9.4;69.7
78708;SHT31;68037;51.978;5.650;2023-02-24T15:31:08;9.4;69.2
78708;SHT31;68037;51.978;5.650;2023-02-24T15:33:44;9.4;69.3
78708;SHT31;68037;51.978;5.650;2023-02-24T15:36:20;9.4;69.5
78708;SHT31;68037;51.978;5.650;2023-02-24T15:38:54;9.4;69.7
78708;SHT31;68037;51.978;5.650;2023-02-24T15:41:24;9.3;69.4
78708;SHT31;68037;51.978;5.650;2023-02-24T15:43:54;9.3;69.2
78708;SHT31;68037;51.978;5.650;2023-02-24T15:46:28;9.3;69.3
78708;SHT31;68037;51.978;5.650;2023-02-24T15:48:58;9.4;68.9
78708;SHT31;68037;51.978;5.650;2023-02-24T15:51:36;9.4;68.1
78708;SHT31;68037;51.978;5.650;2023-02-24T15:54:12;9.5;67.7
78708;SHT31;68037;51.978;5.650;2023-02-24T15:56:44;9.5;67.3
78708;SHT31;68037;51.978;5.650;2023-02-24T15:59:17;9.6;67.4
78708;SHT31;68037;51.978;5.650;2023-02-24T16:01:48;9.6;67.2
78708;SHT31;68037;51.978;5.650;2023-02-24T16:04:19;9.6;67.8
78708;SHT31;68037;51.978;5.650;2023-02-24T16:06:52;9.6;67.7
78708;SHT31;68037;51.978;5.650;2023-02-24T16:09:28;9.6;67.5
78708;SHT31;68037;51.978;5.650;2023-02-24T16:12:07;9.6;68.4
78708;SHT31;68037;51.978;5.650;2023-02-24T16:14:39;9.6;68.2
78708;SHT31;68037;51.978;5.650;2023-02-24T16:17:20;9.6;68.5
78708;SHT31;68037;51.978;5.650;2023-02-24T16:19:53;9.5;68.4
78708;SHT31;68037;51.978;5.650;2023-02-24T16:22:24;9.5;68.9
78708;SHT31;68037;51.978;5.650;2023-02-24T16:24:54;9.4;69.3
78708;SHT31;68037;51.978;5.650;2023-02-24T16:27:24;9.4;69.7
78708;SHT31;68037;51.978;5.650;2023-02-24T16:29:56;9.3;70.3
78708;SHT31;68037;51.978;5.650;2023-02-24T16:32:26;9.2;70.8
78708;SHT31;68037;51.978;5.650;2023-02-24T16:34:57;9.2;71.1
78708;SHT31;68037;51.978;5.650;2023-02-24T16:37:28;9.1;71.1
78708;SHT31;68037;51.978;5.650;2023-02-24T16:40:00;9.0;70.9
78708;SHT31;68037;51.978;5.650;2023-02-24T16:42:36;9.0;70.9
78708;SHT31;68037;51.978;5.650;2023-02-24T16:45:06;8.9;71.1
78708;SHT31;68037;51.978;5.650;2023-02-24T16:47:36;8.9;71.6
78708;SHT31;68037;51.978;5.650;2023-02-24T16:50:08;8.9;71.8
78708;SHT31;68037;51.978;5.650;2023-02-24T16:52:38;8.9;72.9
78708;SHT31;68037;51.978;5.650;2023-02-24T16:55:11;8.9;71.4
78708;SHT31;68037;51.978;5.650;2023-02-24T16:57:42;8.8;71.8
78708;SHT31;68037;51.978;5.650;2023-02-24T17:00:14;8.8;71.0
78708;SHT31;68037;51.978;5.650;2023-02-24T17:02:44;8.7;71.3
78708;SHT31;68037;51.978;5.650;2023-02-24T17:05:18;8.7;72.1
78708;SHT31;68037;51.978;5.650;2023-02-24T17:07:51;8.6;71.7
78708;SHT31;68037;51.978;5.650;2023-02-24T17:10:22;8.6;71.9
78708;SHT31;68037;51.978;5.650;2023-02-24T17:12:51;8.5;71.9
78708;SHT31;68037;51.978;5.650;2023-02-24T17:15:22;8.5;71.5
78708;SHT31;68037;51.978;5.650;2023-02-24T17:17:53;8.5;71.1